sensor_id;sensor_type;location;lat;lon;timestamp;pressure;altitude;pressure_sealevel;temperature;humidity
75420;BME280;63998;52.488;13.428;2023-07-20T00:01:46;100560.53;;;17.77;74.07
75420;BME280;63998;52.488;13.428;2023-07-20T00:04:12;100562.06;;;17.54;75.54
75420;BME280;63998;52.488;13.428;2023-07-20T00:06:38;100554.47;;;17.44;76.27
75420;BME280;63998;52.488;13.428;2023-07-20T00:09:09;100560.66;;;17.43;76.14
75420;BME280;63998;52.488;13.428;2023-07-20T00:11:37;100565.41;;;17.30;76.49
75420;BME280;63998;52.488;13.428;2023-07-20T00:14:04;100567.28;;;17.25;77.02
75420;BME280;63998;52.488;13.428;2023-07-20T00:16:30;100569.16;;;17.20;77.27
75420;BME280;63998;52.488;13.428;2023-07-20T00:18:56;100571.03;;;17.16;77.08
75420;BME280;63998;52.488;13.428;2023-07-20T00:21:21;100569.44;;;17.11;77.81
75420;BME280;63998;52.488;13.428;2023-07-20T00:23:47;100568.75;;;17.04;78.62
75420;BME280;63998;52.488;13.428;2023-07-20T00:26:12;100565.38;;;16.99;78.49
75420;BME280;63998;52.488;13.428;2023-07-20T00:28:37;100561.16;;;16.94;79.14
75420;BME280;63998;52.488;13.428;2023-07-20T00:31:03;100567.22;;;16.96;79.12
75420;BME280;63998;52.488;13.428;2023-07-20T00:33:29;100569.94;;;16.93;79.11
75420;BME280;63998;52.488;13.428;2023-07-20T00:35:54;100568.53;;;16.79;79.52
75420;BME280;63998;52.488;13.428;2023-07-20T00:38:19;100572.38;;;16.66;79.92
75420;BME280;63998;52.488;13.428;2023-07-20T00:40:45;100567.03;;;16.69;80.52
75420;BME280;63998;52.488;13.428;2023-07-20T00:43:11;100581.94;;;16.69;80.23
75420;BME280;63998;52.488;13.428;2023-07-20T00:45:36;100574.16;;;16.66;80.51
75420;BME280;63998;52.488;13.428;2023-07-20T00:48:04;100575.16;;;16.59;80.33
75420;BME280;63998;52.488;13.428;2023-07-20T00:50:31;100577.69;;;16.63;80.67
75420;BME280;63998;52.488;13.428;2023-07-20T00:52:57;100576.84;;;16.61;80.36
75420;BME280;63998;52.488;13.428;2023-07-20T00:55:24;100572.50;;;16.60;80.42
75420;BME280;63998;52.488;13.428;2023-07-20T00:57:50;100565.84;;;16.47;80.65
75420;BME280;63998;52.488;13.428;2023-07-20T01:00:16;100572.06;;;16.43;81.15
75420;BME280;63998;52.488;13.428;2023-07-20T01:02:42;100568.63;;;16.41;81.36
75420;BME280;63998;52.488;13.428;2023-07-20T01:05:07;100566.91;;;16.40;81.35
75420;BME280;63998;52.488;13.428;2023-07-20T01:07:39;100570.47;;;16.36;81.40
75420;BME280;63998;52.488;13.428;2023-07-20T01:10:22;100566.13;;;16.35;81.63
75420;BME280;63998;52.488;13.428;2023-07-20T01:12:55;100570.63;;;16.31;81.53
75420;BME280;63998;52.488;13.428;2023-07-20T01:15:20;100583.81;;;16.27;81.91
75420;BME280;63998;52.488;13.428;2023-07-20T01:17:45;100569.81;;;16.28;81.90
75420;BME280;63998;52.488;13.428;2023-07-20T01:20:13;100572.53;;;16.23;82.10
75420;BME280;63998;52.488;13.428;2023-07-20T01:33:38;100577.81;;;16.22;81.81
75420;BME280;63998;52.488;13.428;2023-07-20T01:36:06;100570.91;;;16.19;81.64
75420;BME280;63998;52.488;13.428;2023-07-20T01:38:32;100570.69;;;16.28;81.16
75420;BME280;63998;52.488;13.428;2023-07-20T01:40:57;100578.56;;;16.27;81.09
75420;BME280;63998;52.488;13.428;2023-07-20T01:43:23;100577.03;;;16.18;81.40
75420;BME280;63998;52.488;13.428;2023-07-20T01:45:48;100564.09;;;16.10;81.83
75420;BME280;63998;52.488;13.428;2023-07-20T01:48:14;100563.22;;;16.11;81.88
75420;BME280;63998;52.488;13.428;2023-07-20T01:50:39;100573.69;;;16.11;81.45
75420;BME280;63998;52.488;13.428;2023-07-20T01:53:04;100574.53;;;16.13;81.57
75420;BME280;63998;52.488;13.428;2023-07-20T01:55:29;100577.16;;;16.13;81.57
75420;BME280;63998;52.488;13.428;2023-07-20T01:57:55;100575.47;;;16.09;81.42
75420;BME280;63998;52.488;13.428;2023-07-20T02:00:21;100572.03;;;16.07;81.55
75420;BME280;63998;52.488;13.428;2023-07-20T02:02:49;100572.19;;;16.01;81.81
75420;BME280;63998;52.488;13.428;2023-07-20T02:05:15;100570.53;;;15.97;82.03
75420;BME280;63998;52.488;13.428;2023-07-20T02:07:40;100572.31;;;15.95;82.11
75420;BME280;63998;52.488;13.428;2023-07-20T02:10:06;100572.19;;;16.01;81.88
75420;BME280;63998;52.488;13.428;2023-07-20T02:12:31;100577.41;;;16.03;81.83
75420;BME280;63998;52.488;13.428;2023-07-20T02:14:57;100577.38;;;16.04;81.59
75420;BME280;63998;52.488;13.428;2023-07-20T02:17:22;100577.38;;;16.04;81.58
75420;BME280;63998;52.488;13.428;2023-07-20T02:19:51;100577.16;;;16.13;81.27
75420;BME280;63998;52.488;13.428;2023-07-20T02:22:17;100569.88;;;16.25;80.72
75420;BME280;63998;52.488;13.428;2023-07-20T02:24:42;100566.31;;;16.29;80.02
75420;BME280;63998;52.488;13.428;2023-07-20T02:27:08;100566.00;;;16.41;79.80
75420;BME280;63998;52.488;13.428;2023-07-20T02:29:33;100567.56;;;16.48;79.24
75420;BME280;63998;52.488;13.428;2023-07-20T02:31:59;100564.88;;;16.51;79.03
75420;BME280;63998;52.488;13.428;2023-07-20T02:34:24;100565.63;;;16.56;78.34
75420;BME280;63998;52.488;13.428;2023-07-20T02:36:49;100567.31;;;16.57;78.08
75420;BME280;63998;52.488;13.428;2023-07-20T02:39:15;100567.25;;;16.60;78.03
75420;BME280;63998;52.488;13.428;2023-07-20T02:41:41;100567.25;;;16.60;78.26
75420;BME280;63998;52.488;13.428;2023-07-20T02:44:06;100563.72;;;16.61;78.28
75420;BME280;63998;52.488;13.428;2023-07-20T02:46:32;100568.16;;;16.59;78.00
75420;BME280;63998;52.488;13.428;2023-07-20T02:48:57;100565.63;;;16.56;77.81
75420;BME280;63998;52.488;13.428;2023-07-20T02:51:22;100569.03;;;16.58;78.03
75420;BME280;63998;52.488;13.428;2023-07-20T02:53:48;100576.84;;;16.61;77.86
75420;BME280;63998;52.488;13.428;2023-07-20T02:56:13;100588.59;;;16.45;78.40
75420;BME280;63998;52.488;13.428;2023-07-20T02:58:41;100582.47;;;16.46;78.27
75420;BME280;63998;52.488;13.428;2023-07-20T03:01:11;100593.94;;;16.42;78.06
75420;BME280;63998;52.488;13.428;2023-07-20T03:03:37;100594.81;;;16.42;78.28
75420;BME280;63998;52.488;13.428;2023-07-20T03:06:06;100589.47;;;16.45;78.17
75420;BME280;63998;52.488;13.428;2023-07-20T03:08:34;100597.28;;;16.47;78.02
75420;BME280;63998;52.488;13.428;2023-07-20T03:10:59;100600.69;;;16.52;77.87
75420;BME280;63998;52.488;13.428;2023-07-20T03:13:24;100597.28;;;16.47;77.54
75420;BME280;63998;52.488;13.428;2023-07-20T03:15:52;100597.22;;;16.50;77.36
75420;BME280;63998;52.488;13.428;2023-07-20T03:18:17;100607.94;;;16.41;77.41
75420;BME280;63998;52.488;13.428;2023-07-20T03:20:42;100612.41;;;16.37;77.29
75420;BME280;63998;52.488;13.428;2023-07-20T03:23:08;100604.72;;;16.30;77.59
75420;BME280;63998;52.488;13.428;2023-07-20T03:25:33;100607.22;;;16.34;77.76
75420;BME280;63998;52.488;13.428;2023-07-20T03:27:59;100600.16;;;16.38;77.79
75420;BME280;63998;52.488;13.428;2023-07-20T03:30:24;100588.69;;;16.42;77.66
75420;BME280;63998;52.488;13.428;2023-07-20T03:32:50;100595.75;;;16.40;77.64
75420;BME280;63998;52.488;13.428;2023-07-20T03:35:16;100604.34;;;16.45;77.48
75420;BME280;63998;52.488;13.428;2023-07-20T03:37:41;100603.75;;;16.32;78.04
75420;BME280;63998;52.488;13.428;2023-07-20T03:40:07;100597.53;;;16.38;77.34
75420;BME280;63998;52.488;13.428;2023-07-20T03:42:33;100606.34;;;16.34;77.70
75420;BME280;63998;52.488;13.428;2023-07-20T03:44:58;100599.25;;;16.39;77.62
75420;BME280;63998;52.488;13.428;2023-07-20T03:47:23;100602.63;;;16.44;77.86
75420;BME280;63998;52.488;13.428;2023-07-20T03:49:49;100607.66;;;16.53;77.21
75420;BME280;63998;52.488;13.428;2023-07-20T03:52:14;100607.59;;;16.56;77.38
75420;BME280;63998;52.488;13.428;2023-07-20T03:54:40;100609.38;;;16.54;76.95
75420;BME280;63998;52.488;13.428;2023-07-20T03:57:05;100608.38;;;16.58;76.98
75420;BME280;63998;52.488;13.428;2023-07-20T03:59:30;100608.28;;;16.64;76.44
75420;BME280;63998;52.488;13.428;2023-07-20T04:01:56;100609.09;;;16.66;76.78
75420;BME280;63998;52.488;13.428;2023-07-20T04:04:21;100607.31;;;16.68;76.85
75420;BME280;63998;52.488;13.428;2023-07-20T04:06:46;100615.19;;;16.68;76.62
75420;BME280;63998;52.488;13.428;2023-07-20T04:09:13;100615.91;;;16.73;76.25
75420;BME280;63998;52.488;13.428;2023-07-20T04:11:38;100625.66;;;16.68;76.46
75420;BME280;63998;52.488;13.428;2023-07-20T04:14:04;100627.59;;;16.59;76.51
75420;BME280;63998;52.488;13.428;2023-07-20T04:16:29;100635.50;;;16.57;76.71
75420;BME280;63998;52.488;13.428;2023-07-20T04:18:55;100625.88;;;16.58;77.10
75420;BME280;63998;52.488;13.428;2023-07-20T04:21:21;100624.94;;;16.60;76.26
75420;BME280;63998;52.488;13.428;2023-07-20T04:23:47;100623.38;;;16.53;76.56
75420;BME280;63998;52.488;13.428;2023-07-20T04:26:12;100620.00;;;16.48;76.56
75420;BME280;63998;52.488;13.428;2023-07-20T04:28:40;100631.38;;;16.47;76.56
75420;BME280;63998;52.488;13.428;2023-07-20T04:31:14;100638.38;;;16.46;76.80
75420;BME280;63998;52.488;13.428;2023-07-20T04:33:40;100634.09;;;16.44;76.43
75420;BME280;63998;52.488;13.428;2023-07-20T04:36:06;100631.63;;;16.36;77.04
75420;BME280;63998;52.488;13.428;2023-07-20T04:38:31;100639.47;;;16.38;76.92
75420;BME280;63998;52.488;13.428;2023-07-20T04:40:57;100636.81;;;16.39;76.94
75420;BME280;63998;52.488;13.428;2023-07-20T04:43:22;100636.59;;;16.48;76.68
75420;BME280;63998;52.488;13.428;2023-07-20T04:45:47;100635.78;;;16.45;76.62
75420;BME280;63998;52.488;13.428;2023-07-20T04:48:14;100637.69;;;16.40;76.87
75420;BME280;63998;52.488;13.428;2023-07-20T04:50:41;100640.97;;;16.48;76.70
75420;BME280;63998;52.488;13.428;2023-07-20T04:53:08;100642.63;;;16.52;76.34
75420;BME280;63998;52.488;13.428;2023-07-20T04:55:35;100635.56;;;16.56;76.31
75420;BME280;63998;52.488;13.428;2023-07-20T04:58:02;100642.47;;;16.58;75.98
75420;BME280;63998;52.488;13.428;2023-07-20T05:00:28;100640.66;;;16.63;76.09
75420;BME280;63998;52.488;13.428;2023-07-20T05:02:54;100636.16;;;16.68;75.76
75420;BME280;63998;52.488;13.428;2023-07-20T05:05:19;100640.28;;;16.78;75.49
75420;BME280;63998;52.488;13.428;2023-07-20T05:07:45;100642.00;;;16.79;75.03
75420;BME280;63998;52.488;13.428;2023-07-20T05:10:11;100638.53;;;16.77;75.09
75420;BME280;63998;52.488;13.428;2023-07-20T05:12:36;100636.75;;;16.79;74.42
75420;BME280;63998;52.488;13.428;2023-07-20T05:15:01;100637.53;;;16.81;74.40
75420;BME280;63998;52.488;13.428;2023-07-20T05:17:27;100638.47;;;16.80;74.08
75420;BME280;63998;52.488;13.428;2023-07-20T05:19:52;100651.41;;;16.86;74.02
75420;BME280;63998;52.488;13.428;2023-07-20T05:22:17;100643.63;;;16.83;73.29
75420;BME280;63998;52.488;13.428;2023-07-20T05:24:43;100641.00;;;16.83;73.37
75420;BME280;63998;52.488;13.428;2023-07-20T05:27:08;100639.97;;;16.91;73.33
75420;BME280;63998;52.488;13.428;2023-07-20T05:29:33;100642.53;;;16.92;72.76
75420;BME280;63998;52.488;13.428;2023-07-20T05:31:59;100643.16;;;17.02;72.13
75420;BME280;63998;52.488;13.428;2023-07-20T05:34:24;100644.00;;;17.04;71.62
75420;BME280;63998;52.488;13.428;2023-07-20T05:36:49;100641.94;;;17.15;71.90
75420;BME280;63998;52.488;13.428;2023-07-20T05:39:17;100644.56;;;17.15;70.98
75420;BME280;63998;52.488;13.428;2023-07-20T05:41:43;100650.75;;;17.12;70.72
75420;BME280;63998;52.488;13.428;2023-07-20T05:44:08;100649.50;;;17.27;70.20
75420;BME280;63998;52.488;13.428;2023-07-20T05:46:33;100652.75;;;17.35;70.05
75420;BME280;63998;52.488;13.428;2023-07-20T05:48:59;100648.88;;;17.48;69.86
75420;BME280;63998;52.488;13.428;2023-07-20T05:51:24;100651.19;;;17.60;69.45
75420;BME280;63998;52.488;13.428;2023-07-20T05:53:49;100654.53;;;17.67;69.28
75420;BME280;63998;52.488;13.428;2023-07-20T05:56:15;100660.41;;;17.75;69.16
75420;BME280;63998;52.488;13.428;2023-07-20T05:58:40;100660.09;;;17.86;69.10
75420;BME280;63998;52.488;13.428;2023-07-20T06:01:05;100659.94;;;17.92;68.65
75420;BME280;63998;52.488;13.428;2023-07-20T06:03:32;100651.91;;;17.97;68.07
75420;BME280;63998;52.488;13.428;2023-07-20T06:06:01;100655.66;;;17.88;68.06
75420;BME280;63998;52.488;13.428;2023-07-20T06:08:30;100661.13;;;17.80;67.97
75420;BME280;63998;52.488;13.428;2023-07-20T06:10:56;100659.75;;;17.98;68.05
75420;BME280;63998;52.488;13.428;2023-07-20T06:13:22;100663.56;;;17.88;67.20
75420;BME280;63998;52.488;13.428;2023-07-20T06:15:47;100669.94;;;17.79;68.32
75420;BME280;63998;52.488;13.428;2023-07-20T06:18:13;100670.06;;;17.75;68.28
75420;BME280;63998;52.488;13.428;2023-07-20T06:20:38;100676.63;;;17.58;68.85
75420;BME280;63998;52.488;13.428;2023-07-20T06:23:04;100675.06;;;17.51;69.24
75420;BME280;63998;52.488;13.428;2023-07-20T06:25:29;100674.94;;;17.56;69.75
75420;BME280;63998;52.488;13.428;2023-07-20T06:27:55;100682.06;;;17.52;69.31
75420;BME280;63998;52.488;13.428;2023-07-20T06:30:21;100681.03;;;17.56;69.53
75420;BME280;63998;52.488;13.428;2023-07-20T06:32:46;100677.84;;;17.45;69.58
75420;BME280;63998;52.488;13.428;2023-07-20T06:35:12;100681.03;;;17.56;69.11
75420;BME280;63998;52.488;13.428;2023-07-20T06:37:37;100674.84;;;17.59;68.34
75420;BME280;63998;52.488;13.428;2023-07-20T06:40:03;100672.19;;;17.60;68.49
75420;BME280;63998;52.488;13.428;2023-07-20T06:42:29;100676.22;;;17.74;67.84
75420;BME280;63998;52.488;13.428;2023-07-20T06:44:56;100684.47;;;17.60;67.74
75420;BME280;63998;52.488;13.428;2023-07-20T06:47:21;100676.84;;;17.51;67.67
75420;BME280;63998;52.488;13.428;2023-07-20T06:49:47;100677.91;;;17.44;66.86
75420;BME280;63998;52.488;13.428;2023-07-20T06:52:12;100681.03;;;17.56;66.99
75420;BME280;63998;52.488;13.428;2023-07-20T06:54:37;100682.06;;;17.52;65.78
75420;BME280;63998;52.488;13.428;2023-07-20T06:57:04;100686.19;;;17.61;65.55
75420;BME280;63998;52.488;13.428;2023-07-20T06:59:29;100687.03;;;17.62;65.55
75420;BME280;63998;52.488;13.428;2023-07-20T07:01:55;100702.75;;;17.65;65.40
75420;BME280;63998;52.488;13.428;2023-07-20T07:04:21;100687.13;;;17.58;65.28
75420;BME280;63998;52.488;13.428;2023-07-20T07:06:46;100692.72;;;17.79;65.09
75420;BME280;63998;52.488;13.428;2023-07-20T07:09:11;100684.66;;;17.85;63.87
75420;BME280;63998;52.488;13.428;2023-07-20T07:11:37;100680.03;;;17.93;63.59
75420;BME280;63998;52.488;13.428;2023-07-20T07:14:02;100686.56;;;18.09;62.83
75420;BME280;63998;52.488;13.428;2023-07-20T07:16:28;100687.22;;;18.17;62.60
75420;BME280;63998;52.488;13.428;2023-07-20T07:18:53;100698.84;;;18.09;62.21
75420;BME280;63998;52.488;13.428;2023-07-20T07:21:18;100691.34;;;18.26;62.19
75420;BME280;63998;52.488;13.428;2023-07-20T07:23:45;100684.75;;;18.41;61.74
75420;BME280;63998;52.488;13.428;2023-07-20T07:26:11;100682.63;;;18.52;61.42
75420;BME280;63998;52.488;13.428;2023-07-20T07:28:37;100689.72;;;18.50;61.34
75420;BME280;63998;52.488;13.428;2023-07-20T07:31:06;100683.19;;;18.63;60.19
75420;BME280;63998;52.488;13.428;2023-07-20T07:33:32;100679.94;;;18.81;59.33
75420;BME280;63998;52.488;13.428;2023-07-20T07:35:57;100684.94;;;18.90;58.86
75420;BME280;63998;52.488;13.428;2023-07-20T07:38:22;100686.97;;;19.07;59.37
75420;BME280;63998;52.488;13.428;2023-07-20T07:40:48;100680.41;;;19.19;57.21
75420;BME280;63998;52.488;13.428;2023-07-20T07:43:13;100688.72;;;19.33;56.48
75420;BME280;63998;52.488;13.428;2023-07-20T07:45:39;100682.19;;;19.43;56.41
75420;BME280;63998;52.488;13.428;2023-07-20T07:48:05;100666.28;;;19.46;56.11
75420;BME280;63998;52.488;13.428;2023-07-20T07:50:31;100672.38;;;19.48;55.90
75420;BME280;63998;52.488;13.428;2023-07-20T07:52:57;100680.69;;;19.62;56.13
75420;BME280;63998;52.488;13.428;2023-07-20T07:55:22;100678.00;;;19.64;55.92
75420;BME280;63998;52.488;13.428;2023-07-20T07:57:47;100681.16;;;19.73;55.91
75420;BME280;63998;52.488;13.428;2023-07-20T08:00:14;100689.50;;;19.61;55.23
75420;BME280;63998;52.488;13.428;2023-07-20T08:02:43;100687.09;;;19.29;54.77
75420;BME280;63998;52.488;13.428;2023-07-20T08:05:09;100695.38;;;19.18;55.69
75420;BME280;63998;52.488;13.428;2023-07-20T08:07:35;100699.16;;;19.36;55.48
75420;BME280;63998;52.488;13.428;2023-07-20T08:10:00;100691.72;;;19.47;54.73
75420;BME280;63998;52.488;13.428;2023-07-20T08:12:26;100691.66;;;19.50;52.87
75420;BME280;63998;52.488;13.428;2023-07-20T08:14:52;100691.31;;;19.59;52.96
75420;BME280;63998;52.488;13.428;2023-07-20T08:17:17;100686.63;;;19.67;53.88
75420;BME280;63998;52.488;13.428;2023-07-20T08:19:43;100690.97;;;19.68;53.30
75420;BME280;63998;52.488;13.428;2023-07-20T08:22:09;100703.25;;;19.69;53.16
75420;BME280;63998;52.488;13.428;2023-07-20T08:24:42;100702.19;;;19.75;53.84
75420;BME280;63998;52.488;13.428;2023-07-20T08:27:08;100709.22;;;19.75;53.56
75420;BME280;63998;52.488;13.428;2023-07-20T08:29:34;100709.56;;;19.65;53.24
75420;BME280;63998;52.488;13.428;2023-07-20T08:32:00;100717.47;;;19.65;53.69
75420;BME280;63998;52.488;13.428;2023-07-20T08:34:25;100713.72;;;19.71;54.11
75420;BME280;63998;52.488;13.428;2023-07-20T08:36:50;100708.41;;;19.72;54.00
75420;BME280;63998;52.488;13.428;2023-07-20T08:39:16;100707.31;;;19.78;54.13
75420;BME280;63998;52.488;13.428;2023-07-20T08:41:43;100704.16;;;19.92;53.90
75420;BME280;63998;52.488;13.428;2023-07-20T08:44:10;100707.63;;;19.94;53.35
75420;BME280;63998;52.488;13.428;2023-07-20T08:46:37;100699.81;;;19.91;52.88
75420;BME280;63998;52.488;13.428;2023-07-20T08:49:03;100711.50;;;19.84;53.21
75420;BME280;63998;52.488;13.428;2023-07-20T08:51:30;100716.44;;;19.93;52.39
75420;BME280;63998;52.488;13.428;2023-07-20T08:53:55;100710.31;;;19.92;52.73
75420;BME280;63998;52.488;13.428;2023-07-20T08:56:21;100709.91;;;19.80;52.94
75420;BME280;63998;52.488;13.428;2023-07-20T08:58:49;100715.06;;;19.83;53.13
75420;BME280;63998;52.488;13.428;2023-07-20T09:01:15;100708.19;;;19.79;52.82
75420;BME280;63998;52.488;13.428;2023-07-20T09:03:43;100707.22;;;19.81;52.78
75420;BME280;63998;52.488;13.428;2023-07-20T09:06:10;100721.03;;;19.88;52.84
75420;BME280;63998;52.488;13.428;2023-07-20T09:08:40;100712.91;;;19.94;53.07
75420;BME280;63998;52.488;13.428;2023-07-20T09:11:06;100716.44;;;19.93;53.42
75420;BME280;63998;52.488;13.428;2023-07-20T09:13:32;100709.00;;;20.04;51.41
75420;BME280;63998;52.488;13.428;2023-07-20T09:15:58;100717.88;;;20.25;50.71
75420;BME280;63998;52.488;13.428;2023-07-20T09:18:25;100708.88;;;19.84;50.88
75420;BME280;63998;52.488;13.428;2023-07-20T09:20:51;100714.41;;;19.78;51.30
75420;BME280;63998;52.488;13.428;2023-07-20T09:23:16;100704.06;;;19.71;51.23
75420;BME280;63998;52.488;13.428;2023-07-20T09:25:42;100704.41;;;19.86;51.04
75420;BME280;63998;52.488;13.428;2023-07-20T09:28:07;100707.16;;;20.06;51.15
75420;BME280;63998;52.488;13.428;2023-07-20T09:30:32;100708.53;;;20.16;50.47
75420;BME280;63998;52.488;13.428;2023-07-20T09:32:58;100708.06;;;20.28;50.33
75420;BME280;63998;52.488;13.428;2023-07-20T09:35:24;100716.91;;;20.27;50.22
75420;BME280;63998;52.488;13.428;2023-07-20T09:37:59;100709.78;;;19.83;50.82
75420;BME280;63998;52.488;13.428;2023-07-20T09:40:26;100705.97;;;19.66;51.06
75420;BME280;63998;52.488;13.428;2023-07-20T09:42:53;100703.59;;;20.07;49.95
75420;BME280;63998;52.488;13.428;2023-07-20T09:45:29;100714.59;;;20.18;50.73
75420;BME280;63998;52.488;13.428;2023-07-20T09:48:03;100704.19;;;20.38;50.62
75420;BME280;63998;52.488;13.428;2023-07-20T09:50:30;100704.53;;;20.06;50.25
75420;BME280;63998;52.488;13.428;2023-07-20T09:52:56;100719.22;;;20.13;50.69
75420;BME280;63998;52.488;13.428;2023-07-20T09:55:22;100715.06;;;20.06;50.77
75420;BME280;63998;52.488;13.428;2023-07-20T09:57:49;100710.38;;;20.14;50.60
75420;BME280;63998;52.488;13.428;2023-07-20T10:00:15;100723.53;;;19.91;50.38
75420;BME280;63998;52.488;13.428;2023-07-20T10:02:43;100728.59;;;19.73;51.14
75420;BME280;63998;52.488;13.428;2023-07-20T10:05:14;100727.41;;;19.57;53.03
75420;BME280;63998;52.488;13.428;2023-07-20T10:07:47;100738.84;;;19.56;52.29
75420;BME280;63998;52.488;13.428;2023-07-20T10:10:14;100732.56;;;19.60;52.26
75420;BME280;63998;52.488;13.428;2023-07-20T10:12:40;100729.59;;;19.69;52.53
75420;BME280;63998;52.488;13.428;2023-07-20T10:17:37;100721.97;;;19.87;51.91
75420;BME280;63998;52.488;13.428;2023-07-20T10:20:05;100724.41;;;19.91;51.67
75420;BME280;63998;52.488;13.428;2023-07-20T10:22:36;100727.31;;;20.30;51.49
75420;BME280;63998;52.488;13.428;2023-07-20T10:25:02;100721.88;;;20.36;50.70
75420;BME280;63998;52.488;13.428;2023-07-20T10:27:30;100723.34;;;20.43;50.37
75420;BME280;63998;52.488;13.428;2023-07-20T10:29:57;100718.53;;;20.53;50.33
75420;BME280;63998;52.488;13.428;2023-07-20T10:32:24;100742.59;;;20.46;50.04
75420;BME280;63998;52.488;13.428;2023-07-20T10:34:55;100728.09;;;20.11;51.05
75420;BME280;63998;52.488;13.428;2023-07-20T10:40:28;100729.16;;;19.82;52.35
75420;BME280;63998;52.488;13.428;2023-07-20T10:43:04;100730.25;;;19.76;52.17
75420;BME280;63998;52.488;13.428;2023-07-20T10:48:23;100719.72;;;19.76;52.00
75420;BME280;63998;52.488;13.428;2023-07-20T10:51:14;100729.97;;;19.84;52.36
75420;BME280;63998;52.488;13.428;2023-07-20T10:53:45;100733.84;;;19.73;53.05
75420;BME280;63998;52.488;13.428;2023-07-20T10:56:15;100726.72;;;19.77;53.46
75420;BME280;63998;52.488;13.428;2023-07-20T10:58:41;100733.59;;;19.56;54.17
75420;BME280;63998;52.488;13.428;2023-07-20T11:01:07;100739.09;;;19.50;54.84
75420;BME280;63998;52.488;13.428;2023-07-20T11:03:36;100737.13;;;19.55;55.01
75420;BME280;63998;52.488;13.428;2023-07-20T11:08:54;100731.44;;;19.67;54.21
75420;BME280;63998;52.488;13.428;2023-07-20T11:11:27;100739.81;;;19.54;54.48
75420;BME280;63998;52.488;13.428;2023-07-20T11:14:23;100737.13;;;19.55;54.83
75420;BME280;63998;52.488;13.428;2023-07-20T11:16:49;100735.81;;;19.42;54.76
75420;BME280;63998;52.488;13.428;2023-07-20T11:19:23;100740.47;;;19.60;54.64
75420;BME280;63998;52.488;13.428;2023-07-20T11:21:55;100746.81;;;19.55;54.31
75420;BME280;63998;52.488;13.428;2023-07-20T11:24:21;100767.19;;;19.23;54.17
75420;BME280;63998;52.488;13.428;2023-07-20T11:29:14;100750.31;;;18.76;55.74
75420;BME280;63998;52.488;13.428;2023-07-20T11:31:42;100743.75;;;18.89;55.69
75420;BME280;63998;52.488;13.428;2023-07-20T11:34:11;100751.69;;;18.88;56.15
75420;BME280;63998;52.488;13.428;2023-07-20T11:36:38;100746.66;;;19.07;55.72
75420;BME280;63998;52.488;13.428;2023-07-20T11:39:03;100741.91;;;19.18;55.46
75420;BME280;63998;52.488;13.428;2023-07-20T11:41:30;100738.63;;;19.37;54.85
75420;BME280;63998;52.488;13.428;2023-07-20T11:43:56;100741.88;;;19.44;53.99
75420;BME280;63998;52.488;13.428;2023-07-20T11:46:22;100733.75;;;19.77;52.95
75420;BME280;63998;52.488;13.428;2023-07-20T11:48:47;100736.31;;;20.26;52.48
75420;BME280;63998;52.488;13.428;2023-07-20T11:51:14;100729.91;;;20.32;52.24
75420;BME280;63998;52.488;13.428;2023-07-20T11:53:41;100722.13;;;20.74;51.36
75420;BME280;63998;52.488;13.428;2023-07-20T11:56:07;100735.56;;;20.46;51.28
75420;BME280;63998;52.488;13.428;2023-07-20T11:58:33;100729.78;;;20.36;51.74
75420;BME280;63998;52.488;13.428;2023-07-20T12:00:58;100724.34;;;20.63;51.29
75420;BME280;63998;52.488;13.428;2023-07-20T12:03:24;100730.59;;;20.82;50.95
75420;BME280;63998;52.488;13.428;2023-07-20T12:05:49;100723.25;;;21.10;50.12
75420;BME280;63998;52.488;13.428;2023-07-20T12:08:15;100716.72;;;20.99;50.05
75420;BME280;63998;52.488;13.428;2023-07-20T12:10:42;100723.34;;;20.43;50.22
75420;BME280;63998;52.488;13.428;2023-07-20T12:13:10;100728.59;;;20.43;50.55
75420;BME280;63998;52.488;13.428;2023-07-20T12:15:35;100729.06;;;20.31;50.67
75420;BME280;63998;52.488;13.428;2023-07-20T12:18:02;100721.25;;;20.05;51.79
75420;BME280;63998;52.488;13.428;2023-07-20T12:20:36;100722.53;;;19.95;52.59
75420;BME280;63998;52.488;13.428;2023-07-20T12:23:04;100726.75;;;19.76;52.63
75420;BME280;63998;52.488;13.428;2023-07-20T12:28:08;100738.91;;;20.03;51.77
75420;BME280;63998;52.488;13.428;2023-07-20T12:30:33;100731.13;;;20.23;51.23
75420;BME280;63998;52.488;13.428;2023-07-20T12:32:59;100735.59;;;20.44;50.76
75420;BME280;63998;52.488;13.428;2023-07-20T12:35:24;100732.38;;;20.60;50.10
75420;BME280;63998;52.488;13.428;2023-07-20T12:37:50;100736.38;;;20.70;49.22
75420;BME280;63998;52.488;13.428;2023-07-20T12:40:17;100723.34;;;20.87;48.72
75420;BME280;63998;52.488;13.428;2023-07-20T12:42:42;100729.97;;;20.97;47.92
75420;BME280;63998;52.488;13.428;2023-07-20T12:45:08;100729.84;;;21.00;46.91
75420;BME280;63998;52.488;13.428;2023-07-20T12:47:33;100724.91;;;21.35;45.38
75420;BME280;63998;52.488;13.428;2023-07-20T12:49:59;100727.53;;;21.55;44.40
75420;BME280;63998;52.488;13.428;2023-07-20T12:52:25;100739.84;;;22.34;43.18
75420;BME280;63998;52.488;13.428;2023-07-20T12:54:50;100725.53;;;22.57;42.58
75420;BME280;63998;52.488;13.428;2023-07-20T12:57:16;100720.28;;;23.10;42.35
75420;BME280;63998;52.488;13.428;2023-07-20T12:59:41;100723.22;;;23.39;40.83
75420;BME280;63998;52.488;13.428;2023-07-20T13:02:07;100723.25;;;23.56;38.70
75420;BME280;63998;52.488;13.428;2023-07-20T13:04:32;100725.16;;;23.87;37.96